CEB357 RPVE-RPLL
Flight info
| Callsign | CEB357 |
|---|---|
| Flight time | 0h 53m |
| Altitude | 26000 |
| Route | MINOR8A MINOR B473 LAIYA LAIYA5R |
| Aircraft | A20N/M-SDE2E3FGHIJ1RWXY/LB1 |
Departure
| Time | 2026-04-25 13:46 |
|---|---|
| Airport | Godofredo P. Ramos Airport (RPVE) |
Arrival
| Time | 2026-04-25 14:40 |
|---|---|
| Airport | Ninoy Aquino International Airport (RPLL) |
| Time | Latitude | Longitude | Altitude | Speed | Heading |
|---|---|---|---|---|---|
| 2026-04-25 13:19 | 11.92519 | 121.96307 | 12 ft | 0 kts | 64° |
| 2026-04-25 13:35 | 11.92513 | 121.96294 | 12 ft | 2 kts | 64° |
| 2026-04-25 13:35 | 11.92509 | 121.96285 | 13 ft | 2 kts | 65° |
| 2026-04-25 13:35 | 11.92499 | 121.96272 | 12 ft | 2 kts | 33° |
| 2026-04-25 13:35 | 11.92486 | 121.96266 | 12 ft | 2 kts | 9° |
| 2026-04-25 13:36 | 11.92471 | 121.96266 | 13 ft | 2 kts | 345° |
| 2026-04-25 13:36 | 11.92463 | 121.96269 | 12 ft | 1 kts | 329° |
| 2026-04-25 13:36 | 11.92459 | 121.96272 | 12 ft | 0 kts | 333° |
| 2026-04-25 13:39 | 11.92480 | 121.96261 | 12 ft | 6 kts | 334° |
| 2026-04-25 13:39 | 11.92543 | 121.96230 | 12 ft | 11 kts | 335° |
| 2026-04-25 13:39 | 11.92611 | 121.96216 | 12 ft | 9 kts | 349° |
| 2026-04-25 13:39 | 11.92669 | 121.96191 | 12 ft | 10 kts | 333° |
| 2026-04-25 13:40 | 11.92703 | 121.96172 | 12 ft | 0 kts | 333° |
| 2026-04-25 13:42 | 11.92705 | 121.96172 | 12 ft | 1 kts | 333° |
| 2026-04-25 13:43 | 11.92768 | 121.96138 | 12 ft | 9 kts | 330° |
| 2026-04-25 13:43 | 11.92790 | 121.96072 | 12 ft | 15 kts | 248° |
| 2026-04-25 13:43 | 11.92730 | 121.95948 | 12 ft | 22 kts | 243° |
| 2026-04-25 13:43 | 11.92661 | 121.95811 | 12 ft | 21 kts | 243° |
| 2026-04-25 13:44 | 11.92591 | 121.95674 | 12 ft | 21 kts | 242° |
| 2026-04-25 13:44 | 11.92524 | 121.95538 | 12 ft | 21 kts | 244° |
| 2026-04-25 13:44 | 11.92453 | 121.95395 | 12 ft | 23 kts | 243° |
| 2026-04-25 13:44 | 11.92377 | 121.95243 | 12 ft | 23 kts | 243° |
| 2026-04-25 13:45 | 11.92310 | 121.95112 | 12 ft | 15 kts | 236° |
| 2026-04-25 13:45 | 11.92241 | 121.95042 | 12 ft | 9 kts | 235° |
| 2026-04-25 13:45 | 11.92252 | 121.95019 | 12 ft | 5 kts | 28° |
| 2026-04-25 13:45 | 11.92279 | 121.95048 | 12 ft | 8 kts | 61° |
| 2026-04-25 13:46 | 11.92398 | 121.95297 | 13 ft | 82 kts | 63° |
| 2026-04-25 13:46 | 11.92782 | 121.96056 | 59 ft | 148 kts | 62° |
| 2026-04-25 13:46 | 11.93236 | 121.96960 | 783 ft | 146 kts | 63° |
| 2026-04-25 13:46 | 11.93668 | 121.97830 | 1718 ft | 137 kts | 63° |
| 2026-04-25 13:47 | 11.94088 | 121.98682 | 2401 ft | 140 kts | 64° |
| 2026-04-25 13:47 | 11.94548 | 121.99609 | 2832 ft | 159 kts | 64° |
| 2026-04-25 13:47 | 11.95077 | 122.00670 | 3346 ft | 177 kts | 64° |
| 2026-04-25 13:47 | 11.95674 | 122.01860 | 3835 ft | 200 kts | 62° |
| 2026-04-25 13:48 | 11.96591 | 122.03005 | 4374 ft | 222 kts | 40° |
| 2026-04-25 13:48 | 11.97996 | 122.03825 | 4979 ft | 241 kts | 30° |
| 2026-04-25 13:48 | 11.99554 | 122.04617 | 5571 ft | 259 kts | 30° |
| 2026-04-25 13:48 | 12.01192 | 122.05440 | 6352 ft | 267 kts | 30° |
| 2026-04-25 13:49 | 12.02862 | 122.06280 | 7203 ft | 272 kts | 29° |
| 2026-04-25 13:49 | 12.04579 | 122.07148 | 8021 ft | 277 kts | 28° |
| 2026-04-25 13:49 | 12.06315 | 122.08025 | 8795 ft | 282 kts | 28° |
| 2026-04-25 13:49 | 12.08095 | 122.08924 | 9549 ft | 287 kts | 27° |
| 2026-04-25 13:50 | 12.09887 | 122.09829 | 10275 ft | 292 kts | 27° |
| 2026-04-25 13:50 | 12.11766 | 122.10774 | 10750 ft | 307 kts | 27° |
| 2026-04-25 13:50 | 12.13738 | 122.11763 | 11103 ft | 325 kts | 27° |
| 2026-04-25 13:50 | 12.15825 | 122.12813 | 11426 ft | 343 kts | 26° |
| 2026-04-25 13:51 | 12.17994 | 122.13908 | 11914 ft | 353 kts | 26° |
| 2026-04-25 13:51 | 12.20221 | 122.15036 | 12529 ft | 359 kts | 26° |
| 2026-04-25 13:51 | 12.22466 | 122.16174 | 13132 ft | 365 kts | 26° |
| 2026-04-25 13:51 | 12.24748 | 122.17331 | 13754 ft | 369 kts | 26° |
| 2026-04-25 13:52 | 12.27067 | 122.18507 | 14390 ft | 372 kts | 26° |
| 2026-04-25 13:52 | 12.29411 | 122.19694 | 15009 ft | 375 kts | 26° |
| 2026-04-25 13:52 | 12.31745 | 122.20879 | 15601 ft | 378 kts | 26° |
| 2026-04-25 13:52 | 12.34149 | 122.21994 | 16151 ft | 382 kts | 18° |
| 2026-04-25 13:53 | 12.36820 | 122.22313 | 16678 ft | 387 kts | 355° |
| 2026-04-25 13:53 | 12.39428 | 122.21623 | 17239 ft | 390 kts | 335° |
| 2026-04-25 13:53 | 12.41750 | 122.20158 | 17772 ft | 393 kts | 326° |
| 2026-04-25 13:53 | 12.44010 | 122.18563 | 18250 ft | 398 kts | 325° |
| 2026-04-25 13:54 | 12.46293 | 122.16950 | 18745 ft | 401 kts | 325° |
| 2026-04-25 13:54 | 12.48611 | 122.15321 | 19254 ft | 404 kts | 325° |
| 2026-04-25 13:54 | 12.50934 | 122.13694 | 19746 ft | 407 kts | 325° |
| 2026-04-25 13:54 | 12.53278 | 122.12058 | 20238 ft | 409 kts | 325° |
| 2026-04-25 13:55 | 12.55647 | 122.10407 | 20720 ft | 412 kts | 325° |
| 2026-04-25 13:55 | 12.58014 | 122.08759 | 21189 ft | 415 kts | 324° |
| 2026-04-25 13:55 | 12.60401 | 122.07098 | 21649 ft | 418 kts | 324° |
| 2026-04-25 13:55 | 12.62839 | 122.05402 | 22111 ft | 421 kts | 324° |
| 2026-04-25 13:56 | 12.65260 | 122.03717 | 22573 ft | 423 kts | 324° |
| 2026-04-25 13:56 | 12.67693 | 122.02024 | 23044 ft | 426 kts | 324° |
| 2026-04-25 13:56 | 12.70174 | 122.00297 | 23518 ft | 428 kts | 324° |
| 2026-04-25 13:56 | 12.72649 | 121.98574 | 23984 ft | 431 kts | 324° |
| 2026-04-25 13:57 | 12.75127 | 121.96850 | 24439 ft | 433 kts | 324° |
| 2026-04-25 13:57 | 12.75967 | 121.96265 | 24589 ft | 434 kts | 324° |
| 2026-04-25 13:57 | 12.80158 | 121.93346 | 25308 ft | 438 kts | 324° |
| 2026-04-25 13:57 | 12.82678 | 121.91589 | 25718 ft | 441 kts | 324° |
| 2026-04-25 13:58 | 12.85213 | 121.89824 | 25916 ft | 442 kts | 324° |
| 2026-04-25 13:58 | 12.87746 | 121.88058 | 25924 ft | 442 kts | 324° |
| 2026-04-25 13:58 | 12.90292 | 121.86282 | 25929 ft | 442 kts | 324° |
| 2026-04-25 13:58 | 12.92857 | 121.84493 | 25932 ft | 441 kts | 324° |
| 2026-04-25 13:59 | 12.95406 | 121.82714 | 25933 ft | 441 kts | 323° |
| 2026-04-25 13:59 | 12.97916 | 121.80963 | 25935 ft | 441 kts | 324° |
| 2026-04-25 13:59 | 13.00459 | 121.79187 | 25939 ft | 441 kts | 324° |
| 2026-04-25 13:59 | 13.03006 | 121.77409 | 25939 ft | 441 kts | 323° |
| 2026-04-25 14:00 | 13.04705 | 121.76221 | 25937 ft | 441 kts | 324° |
| 2026-04-25 14:00 | 13.08104 | 121.73847 | 25944 ft | 441 kts | 324° |
| 2026-04-25 14:00 | 13.10635 | 121.72079 | 25945 ft | 441 kts | 324° |
| 2026-04-25 14:00 | 13.13206 | 121.70291 | 25944 ft | 441 kts | 324° |
| 2026-04-25 14:01 | 13.15751 | 121.68523 | 25945 ft | 441 kts | 324° |
| 2026-04-25 14:01 | 13.18295 | 121.66751 | 25945 ft | 441 kts | 324° |
| 2026-04-25 14:01 | 13.20839 | 121.64975 | 25948 ft | 441 kts | 324° |
| 2026-04-25 14:01 | 13.23386 | 121.63197 | 25946 ft | 441 kts | 323° |
| 2026-04-25 14:02 | 13.25933 | 121.61415 | 25947 ft | 441 kts | 323° |
| 2026-04-25 14:02 | 13.28467 | 121.59643 | 25947 ft | 441 kts | 323° |
| 2026-04-25 14:02 | 13.31014 | 121.57858 | 25946 ft | 440 kts | 323° |
| 2026-04-25 14:02 | 13.31861 | 121.57265 | 25947 ft | 440 kts | 323° |
| 2026-04-25 14:03 | 13.36058 | 121.54321 | 25945 ft | 440 kts | 323° |
| 2026-04-25 14:03 | 13.38591 | 121.52545 | 25946 ft | 440 kts | 323° |
| 2026-04-25 14:03 | 13.41133 | 121.50761 | 25807 ft | 439 kts | 323° |
| 2026-04-25 14:03 | 13.43672 | 121.48979 | 25565 ft | 437 kts | 323° |
| 2026-04-25 14:04 | 13.46153 | 121.47237 | 25327 ft | 435 kts | 323° |
| 2026-04-25 14:04 | 13.48675 | 121.45463 | 25085 ft | 434 kts | 323° |
| 2026-04-25 14:04 | 13.51140 | 121.43729 | 24846 ft | 432 kts | 323° |
| 2026-04-25 14:04 | 13.53643 | 121.41969 | 24601 ft | 431 kts | 323° |
| 2026-04-25 14:05 | 13.56095 | 121.40247 | 24362 ft | 430 kts | 323° |
| 2026-04-25 14:05 | 13.58566 | 121.38519 | 24091 ft | 428 kts | 324° |
| 2026-04-25 14:05 | 13.61023 | 121.36816 | 23796 ft | 426 kts | 324° |
| 2026-04-25 14:05 | 13.63503 | 121.35098 | 23416 ft | 423 kts | 324° |
| 2026-04-25 14:06 | 13.65934 | 121.33403 | 22974 ft | 420 kts | 323° |
| 2026-04-25 14:06 | 13.68327 | 121.31724 | 22498 ft | 417 kts | 323° |
| 2026-04-25 14:06 | 13.70720 | 121.30047 | 22010 ft | 413 kts | 324° |
| 2026-04-25 14:06 | 13.73073 | 121.28402 | 21523 ft | 409 kts | 324° |
| 2026-04-25 14:07 | 13.75427 | 121.26759 | 21028 ft | 406 kts | 324° |
| 2026-04-25 14:07 | 13.77759 | 121.25130 | 20528 ft | 403 kts | 324° |
| 2026-04-25 14:07 | 13.80076 | 121.23514 | 20128 ft | 400 kts | 324° |
| 2026-04-25 14:07 | 13.82378 | 121.21908 | 19991 ft | 400 kts | 324° |
| 2026-04-25 14:08 | 13.84690 | 121.20293 | 19986 ft | 401 kts | 324° |
| 2026-04-25 14:08 | 13.87008 | 121.18675 | 19986 ft | 401 kts | 324° |
| 2026-04-25 14:08 | 13.89307 | 121.17071 | 19986 ft | 401 kts | 324° |
| 2026-04-25 14:08 | 13.91629 | 121.15451 | 19984 ft | 401 kts | 324° |
| 2026-04-25 14:09 | 13.93965 | 121.13886 | 19987 ft | 401 kts | 328° |
| 2026-04-25 14:09 | 13.96359 | 121.12436 | 19989 ft | 401 kts | 327° |
| 2026-04-25 14:09 | 13.98731 | 121.10928 | 19950 ft | 398 kts | 326° |
| 2026-04-25 14:09 | 13.99543 | 121.10407 | 19862 ft | 396 kts | 326° |
| 2026-04-25 14:10 | 14.03405 | 121.07918 | 18923 ft | 393 kts | 326° |
| 2026-04-25 14:10 | 14.05717 | 121.06417 | 18349 ft | 391 kts | 326° |
| 2026-04-25 14:10 | 14.07994 | 121.04934 | 17817 ft | 388 kts | 326° |
| 2026-04-25 14:10 | 14.10272 | 121.03443 | 17407 ft | 381 kts | 326° |
| 2026-04-25 14:11 | 14.12464 | 121.02023 | 17219 ft | 368 kts | 327° |
| 2026-04-25 14:11 | 14.14624 | 121.00659 | 17017 ft | 357 kts | 327° |
| 2026-04-25 14:11 | 14.16720 | 120.99340 | 16830 ft | 345 kts | 327° |
| 2026-04-25 14:11 | 14.18731 | 120.98078 | 16652 ft | 335 kts | 327° |
| 2026-04-25 14:12 | 14.20700 | 120.96843 | 16381 ft | 328 kts | 327° |
| 2026-04-25 14:12 | 14.22655 | 120.95618 | 15684 ft | 337 kts | 327° |
| 2026-04-25 14:12 | 14.24708 | 120.94330 | 14856 ft | 348 kts | 327° |
| 2026-04-25 14:12 | 14.26802 | 120.93012 | 14004 ft | 359 kts | 327° |
| 2026-04-25 14:13 | 14.28941 | 120.91663 | 13103 ft | 369 kts | 327° |
| 2026-04-25 14:13 | 14.31169 | 120.90253 | 12135 ft | 379 kts | 328° |
| 2026-04-25 14:13 | 14.33399 | 120.88824 | 11160 ft | 388 kts | 328° |
| 2026-04-25 14:13 | 14.35701 | 120.87318 | 10121 ft | 397 kts | 328° |
| 2026-04-25 14:14 | 14.38030 | 120.85767 | 9279 ft | 397 kts | 328° |
| 2026-04-25 14:14 | 14.40329 | 120.84219 | 8591 ft | 392 kts | 327° |
| 2026-04-25 14:14 | 14.42584 | 120.82691 | 7941 ft | 387 kts | 327° |
| 2026-04-25 14:14 | 14.44843 | 120.81156 | 7361 ft | 380 kts | 327° |
| 2026-04-25 14:15 | 14.47006 | 120.79676 | 7070 ft | 366 kts | 327° |
| 2026-04-25 14:15 | 14.47705 | 120.79196 | 7016 ft | 358 kts | 327° |
| 2026-04-25 14:15 | 14.50906 | 120.76994 | 6996 ft | 305 kts | 327° |
| 2026-04-25 14:15 | 14.52597 | 120.75823 | 7008 ft | 285 kts | 327° |
| 2026-04-25 14:16 | 14.54236 | 120.74683 | 6935 ft | 280 kts | 327° |
| 2026-04-25 14:16 | 14.55839 | 120.73566 | 6599 ft | 276 kts | 327° |
| 2026-04-25 14:16 | 14.57410 | 120.72482 | 6374 ft | 263 kts | 331° |
| 2026-04-25 14:16 | 14.59037 | 120.71747 | 6030 ft | 254 kts | 344° |
| 2026-04-25 14:17 | 14.60744 | 120.71239 | 5585 ft | 251 kts | 347° |
| 2026-04-25 14:17 | 14.62433 | 120.70792 | 5086 ft | 250 kts | 351° |
| 2026-04-25 14:17 | 14.64135 | 120.70677 | 4592 ft | 246 kts | 4° |
| 2026-04-25 14:17 | 14.65840 | 120.70802 | 4113 ft | 243 kts | 7° |
| 2026-04-25 14:18 | 14.67509 | 120.71089 | 3612 ft | 240 kts | 24° |
| 2026-04-25 14:18 | 14.68819 | 120.72092 | 3208 ft | 236 kts | 51° |
| 2026-04-25 14:18 | 14.69757 | 120.73465 | 3014 ft | 233 kts | 64° |
| 2026-04-25 14:18 | 14.69981 | 120.75086 | 2995 ft | 235 kts | 99° |
| 2026-04-25 14:19 | 14.69556 | 120.76751 | 2901 ft | 238 kts | 104° |
| 2026-04-25 14:19 | 14.69125 | 120.78393 | 2787 ft | 243 kts | 103° |
| 2026-04-25 14:19 | 14.68716 | 120.80064 | 2710 ft | 231 kts | 103° |
| 2026-04-25 14:19 | 14.68119 | 120.81560 | 2693 ft | 219 kts | 118° |
| 2026-04-25 14:20 | 14.67225 | 120.82805 | 2694 ft | 216 kts | 128° |
| 2026-04-25 14:20 | 14.66900 | 120.83189 | 2689 ft | 212 kts | 129° |
| 2026-04-25 14:20 | 14.65309 | 120.85008 | 2694 ft | 200 kts | 129° |
| 2026-04-25 14:20 | 14.64376 | 120.86086 | 2703 ft | 199 kts | 128° |
| 2026-04-25 14:21 | 14.63503 | 120.87104 | 2762 ft | 184 kts | 128° |
| 2026-04-25 14:21 | 14.62681 | 120.88067 | 2705 ft | 170 kts | 127° |
| 2026-04-25 14:21 | 14.61931 | 120.88950 | 2627 ft | 154 kts | 127° |
| 2026-04-25 14:21 | 14.61246 | 120.89759 | 2539 ft | 149 kts | 127° |
| 2026-04-25 14:22 | 14.60562 | 120.90575 | 2432 ft | 151 kts | 127° |
| 2026-04-25 14:22 | 14.59874 | 120.91394 | 2254 ft | 151 kts | 127° |
| 2026-04-25 14:22 | 14.59176 | 120.92223 | 2065 ft | 151 kts | 128° |
| 2026-04-25 14:22 | 14.58496 | 120.93027 | 1872 ft | 144 kts | 128° |
| 2026-04-25 14:23 | 14.57855 | 120.93783 | 1677 ft | 138 kts | 128° |
| 2026-04-25 14:23 | 14.57225 | 120.94528 | 1509 ft | 137 kts | 128° |
| 2026-04-25 14:23 | 14.56597 | 120.95274 | 1328 ft | 136 kts | 128° |
| 2026-04-25 14:23 | 14.55951 | 120.96037 | 1241 ft | 154 kts | 128° |
| 2026-04-25 14:24 | 14.55246 | 120.96867 | 1919 ft | 152 kts | 128° |
| 2026-04-25 14:24 | 14.54560 | 120.97652 | 2497 ft | 149 kts | 128° |
| 2026-04-25 14:24 | 14.53834 | 120.98481 | 2894 ft | 165 kts | 128° |
| 2026-04-25 14:24 | 14.52985 | 120.99464 | 3010 ft | 205 kts | 128° |
| 2026-04-25 14:25 | 14.51980 | 121.00642 | 2997 ft | 224 kts | 128° |
| 2026-04-25 14:25 | 14.50950 | 121.01856 | 2957 ft | 226 kts | 128° |
| 2026-04-25 14:25 | 14.49908 | 121.03088 | 2982 ft | 226 kts | 128° |
| 2026-04-25 14:25 | 14.49563 | 121.03496 | 2987 ft | 226 kts | 128° |
| 2026-04-25 14:26 | 14.47835 | 121.05530 | 3003 ft | 226 kts | 131° |
| 2026-04-25 14:26 | 14.46503 | 121.06416 | 2987 ft | 230 kts | 162° |
| 2026-04-25 14:26 | 14.44910 | 121.06448 | 2998 ft | 234 kts | 189° |
| 2026-04-25 14:26 | 14.43341 | 121.06000 | 3004 ft | 229 kts | 196° |
| 2026-04-25 14:27 | 14.41845 | 121.05394 | 3004 ft | 231 kts | 212° |
| 2026-04-25 14:27 | 14.40775 | 121.04178 | 3042 ft | 234 kts | 247° |
| 2026-04-25 14:27 | 14.40408 | 121.02544 | 3532 ft | 237 kts | 264° |
| 2026-04-25 14:27 | 14.40266 | 121.00856 | 3885 ft | 235 kts | 266° |
| 2026-04-25 14:28 | 14.40162 | 120.99182 | 4001 ft | 235 kts | 267° |
| 2026-04-25 14:28 | 14.40063 | 120.97497 | 4004 ft | 233 kts | 267° |
| 2026-04-25 14:28 | 14.39966 | 120.95842 | 4007 ft | 233 kts | 267° |
| 2026-04-25 14:28 | 14.39865 | 120.94168 | 4010 ft | 234 kts | 267° |
| 2026-04-25 14:29 | 14.39763 | 120.92485 | 4016 ft | 233 kts | 267° |
| 2026-04-25 14:29 | 14.39685 | 120.90805 | 4013 ft | 233 kts | 275° |
| 2026-04-25 14:29 | 14.40126 | 120.89234 | 4003 ft | 229 kts | 300° |
| 2026-04-25 14:29 | 14.40958 | 120.87840 | 4017 ft | 230 kts | 306° |
| 2026-04-25 14:30 | 14.41863 | 120.86492 | 4031 ft | 229 kts | 307° |
| 2026-04-25 14:30 | 14.44156 | 120.84248 | 4009 ft | 225 kts | 326° |
| 2026-04-25 14:30 | 14.45439 | 120.83303 | 4006 ft | 225 kts | 327° |
| 2026-04-25 14:31 | 14.46726 | 120.82372 | 4000 ft | 225 kts | 327° |
| 2026-04-25 14:31 | 14.48005 | 120.81451 | 4008 ft | 225 kts | 327° |
| 2026-04-25 14:31 | 14.49291 | 120.80524 | 3996 ft | 223 kts | 327° |
| 2026-04-25 14:31 | 14.50554 | 120.79608 | 3780 ft | 221 kts | 327° |
| 2026-04-25 14:32 | 14.51819 | 120.78692 | 3482 ft | 222 kts | 327° |
| 2026-04-25 14:32 | 14.53101 | 120.77760 | 3207 ft | 222 kts | 327° |
| 2026-04-25 14:32 | 14.54352 | 120.76849 | 3031 ft | 219 kts | 330° |
| 2026-04-25 14:32 | 14.55744 | 120.76269 | 3015 ft | 215 kts | 351° |
| 2026-04-25 14:33 | 14.57248 | 120.76046 | 3007 ft | 216 kts | 356° |
| 2026-04-25 14:33 | 14.58732 | 120.75896 | 2999 ft | 216 kts | 357° |
| 2026-04-25 14:33 | 14.60246 | 120.75759 | 2996 ft | 215 kts | 358° |
| 2026-04-25 14:33 | 14.61712 | 120.75884 | 2810 ft | 208 kts | 26° |
| 2026-04-25 14:34 | 14.62782 | 120.76819 | 2709 ft | 204 kts | 58° |
| 2026-04-25 14:34 | 14.63217 | 120.78215 | 2706 ft | 208 kts | 86° |
| 2026-04-25 14:34 | 14.63223 | 120.79723 | 2706 ft | 210 kts | 88° |
| 2026-04-25 14:34 | 14.63220 | 120.81254 | 2702 ft | 211 kts | 88° |
| 2026-04-25 14:35 | 14.63225 | 120.82755 | 2702 ft | 211 kts | 88° |
| 2026-04-25 14:35 | 14.63234 | 120.84244 | 2686 ft | 200 kts | 88° |
| 2026-04-25 14:35 | 14.63245 | 120.85639 | 2689 ft | 192 kts | 87° |
| 2026-04-25 14:35 | 14.63224 | 120.87019 | 2690 ft | 193 kts | 98° |
| 2026-04-25 14:36 | 14.62630 | 120.88256 | 2691 ft | 196 kts | 129° |
| 2026-04-25 14:36 | 14.61695 | 120.89312 | 2686 ft | 199 kts | 129° |
| 2026-04-25 14:36 | 14.60763 | 120.90379 | 2475 ft | 200 kts | 129° |
| 2026-04-25 14:36 | 14.59842 | 120.91450 | 2241 ft | 198 kts | 128° |
| 2026-04-25 14:37 | 14.58964 | 120.92477 | 2075 ft | 184 kts | 128° |
| 2026-04-25 14:37 | 14.58142 | 120.93442 | 1814 ft | 172 kts | 128° |
| 2026-04-25 14:37 | 14.57380 | 120.94340 | 1562 ft | 159 kts | 128° |
| 2026-04-25 14:37 | 14.56684 | 120.95164 | 1337 ft | 146 kts | 128° |
| 2026-04-25 14:38 | 14.56045 | 120.95940 | 1075 ft | 137 kts | 126° |
| 2026-04-25 14:38 | 14.55458 | 120.96698 | 911 ft | 133 kts | 126° |
| 2026-04-25 14:38 | 14.54902 | 120.97456 | 789 ft | 133 kts | 124° |
| 2026-04-25 14:38 | 14.54347 | 120.98227 | 618 ft | 133 kts | 126° |
| 2026-04-25 14:39 | 14.53747 | 120.98955 | 459 ft | 132 kts | 131° |
| 2026-04-25 14:39 | 14.53100 | 120.99638 | 312 ft | 131 kts | 134° |
| 2026-04-25 14:39 | 14.52456 | 121.00304 | 159 ft | 131 kts | 132° |
| 2026-04-25 14:39 | 14.51844 | 121.00947 | 82 ft | 110 kts | 137° |
| 2026-04-25 14:40 | 14.51513 | 121.01283 | 82 ft | 22 kts | 134° |
| 2026-04-25 14:40 | 14.51418 | 121.01382 | 82 ft | 19 kts | 134° |
| 2026-04-25 14:40 | 14.51345 | 121.01479 | 82 ft | 9 kts | 99° |
| 2026-04-25 14:40 | 14.51351 | 121.01514 | 82 ft | 2 kts | 56° |
| 2026-04-25 14:41 | 14.51369 | 121.01534 | 82 ft | 4 kts | 45° |
| 2026-04-25 14:41 | 14.51400 | 121.01537 | 82 ft | 5 kts | 343° |
| 2026-04-25 14:41 | 14.51435 | 121.01511 | 82 ft | 6 kts | 314° |
| 2026-04-25 14:41 | 14.51475 | 121.01468 | 82 ft | 10 kts | 314° |
| 2026-04-25 14:42 | 14.51528 | 121.01411 | 82 ft | 11 kts | 314° |
| 2026-04-25 14:42 | 14.51547 | 121.01392 | 82 ft | 11 kts | 314° |
| 2026-04-25 14:42 | 14.51653 | 121.01282 | 82 ft | 13 kts | 315° |
| 2026-04-25 14:42 | 14.51722 | 121.01210 | 82 ft | 14 kts | 315° |
| 2026-04-25 14:43 | 14.51795 | 121.01135 | 82 ft | 15 kts | 315° |
| 2026-04-25 14:43 | 14.51850 | 121.01077 | 82 ft | 0 kts | 313° |
| 2026-04-25 14:43 | 14.51857 | 121.01070 | 82 ft | 3 kts | 314° |
| 2026-04-25 14:44 | 14.51908 | 121.01053 | 82 ft | 11 kts | 17° |
| 2026-04-25 14:44 | 14.51934 | 121.01107 | 82 ft | 8 kts | 66° |
| 2026-04-25 14:44 | 14.51970 | 121.01157 | 82 ft | 8 kts | 47° |
| 2026-04-25 14:44 | 14.51994 | 121.01182 | 82 ft | 0 kts | 45° |